Centenario, Argentina
Current Conditions -  °F | °C
As of 9:00 AM on Sunday 25 Jan 2015 (Local Time) from SAZN Reporting Station
Clear Clear  
Wind Chill: 22°   Ceiling: Unl
Heat Index: 22°   Visibility: 6mi
Dew Point: 13°   Wind: 2mph
Humidity: 57%   Direction: 230°SW
Pressure: 29.91"   Gusts: NA
Location:  38.8°S, 68.13°W
Report Text: SAZN 251200Z 23002KT CAVOK 22/13 Q1013
Loading
Personal Weather Stations






























Interactive Weather Map New forecast layout! Learn more

10-Day Weather Forecast

Advertisements
Track Severe Weather on mobile